sensor_id;sensor_type;location;lat;lon;timestamp;temperature;humidity
53978;DHT22;39886;47.984;-1.586;2023-06-10T00:02:03;25.20;67.60
53978;DHT22;39886;47.984;-1.586;2023-06-10T00:04:29;25.20;67.60
53978;DHT22;39886;47.984;-1.586;2023-06-10T00:06:55;25.20;67.60
53978;DHT22;39886;47.984;-1.586;2023-06-10T00:09:21;25.20;67.60
53978;DHT22;39886;47.984;-1.586;2023-06-10T00:11:47;25.20;67.50
53978;DHT22;39886;47.984;-1.586;2023-06-10T00:14:13;25.20;67.60
53978;DHT22;39886;47.984;-1.586;2023-06-10T00:16:39;25.20;67.60
53978;DHT22;39886;47.984;-1.586;2023-06-10T00:19:05;25.20;67.60
53978;DHT22;39886;47.984;-1.586;2023-06-10T00:21:32;25.20;67.60
53978;DHT22;39886;47.984;-1.586;2023-06-10T00:24:05;25.20;67.60
53978;DHT22;39886;47.984;-1.586;2023-06-10T00:26:32;25.20;67.60
53978;DHT22;39886;47.984;-1.586;2023-06-10T00:29:01;25.20;67.60
53978;DHT22;39886;47.984;-1.586;2023-06-10T00:31:27;25.20;67.60
53978;DHT22;39886;47.984;-1.586;2023-06-10T00:33:53;25.20;68.30
53978;DHT22;39886;47.984;-1.586;2023-06-10T00:36:19;25.20;67.60
53978;DHT22;39886;47.984;-1.586;2023-06-10T00:38:45;25.20;67.60
53978;DHT22;39886;47.984;-1.586;2023-06-10T00:41:10;25.20;67.60
53978;DHT22;39886;47.984;-1.586;2023-06-10T00:43:36;25.20;67.60
53978;DHT22;39886;47.984;-1.586;2023-06-10T00:46:02;25.20;67.60
53978;DHT22;39886;47.984;-1.586;2023-06-10T00:48:28;25.20;67.60
53978;DHT22;39886;47.984;-1.586;2023-06-10T00:50:54;25.10;67.50
53978;DHT22;39886;47.984;-1.586;2023-06-10T00:53:21;25.20;67.60
53978;DHT22;39886;47.984;-1.586;2023-06-10T00:55:48;25.20;67.70
53978;DHT22;39886;47.984;-1.586;2023-06-10T00:58:13;25.20;67.60
53978;DHT22;39886;47.984;-1.586;2023-06-10T01:00:41;25.10;67.60
53978;DHT22;39886;47.984;-1.586;2023-06-10T01:03:06;25.20;67.60
53978;DHT22;39886;47.984;-1.586;2023-06-10T01:05:34;25.20;67.60
53978;DHT22;39886;47.984;-1.586;2023-06-10T01:11:00;25.10;67.60
53978;DHT22;39886;47.984;-1.586;2023-06-10T01:13:28;25.10;67.50
53978;DHT22;39886;47.984;-1.586;2023-06-10T01:15:55;25.10;67.60
53978;DHT22;39886;47.984;-1.586;2023-06-10T01:18:22;25.10;67.60
53978;DHT22;39886;47.984;-1.586;2023-06-10T01:20:48;25.10;68.30
53978;DHT22;39886;47.984;-1.586;2023-06-10T01:23:14;25.10;67.60
53978;DHT22;39886;47.984;-1.586;2023-06-10T01:25:49;25.10;67.60
53978;DHT22;39886;47.984;-1.586;2023-06-10T01:31:17;25.10;67.70
53978;DHT22;39886;47.984;-1.586;2023-06-10T01:33:47;25.10;67.60
53978;DHT22;39886;47.984;-1.586;2023-06-10T01:36:15;25.10;67.60
53978;DHT22;39886;47.984;-1.586;2023-06-10T01:38:46;25.10;67.60
53978;DHT22;39886;47.984;-1.586;2023-06-10T01:41:14;25.10;67.70
53978;DHT22;39886;47.984;-1.586;2023-06-10T01:43:43;25.10;67.70
53978;DHT22;39886;47.984;-1.586;2023-06-10T01:46:09;25.10;67.70
53978;DHT22;39886;47.984;-1.586;2023-06-10T01:48:35;25.10;67.70
53978;DHT22;39886;47.984;-1.586;2023-06-10T01:51:00;25.10;67.70
53978;DHT22;39886;47.984;-1.586;2023-06-10T01:53:26;25.10;67.70
53978;DHT22;39886;47.984;-1.586;2023-06-10T01:55:52;25.10;67.70
53978;DHT22;39886;47.984;-1.586;2023-06-10T01:58:18;25.10;67.70
53978;DHT22;39886;47.984;-1.586;2023-06-10T02:00:43;25.10;67.70
53978;DHT22;39886;47.984;-1.586;2023-06-10T02:03:09;25.10;67.70
53978;DHT22;39886;47.984;-1.586;2023-06-10T02:05:35;25.10;67.70
53978;DHT22;39886;47.984;-1.586;2023-06-10T02:08:00;25.10;67.70
53978;DHT22;39886;47.984;-1.586;2023-06-10T02:10:26;25.10;67.70
53978;DHT22;39886;47.984;-1.586;2023-06-10T02:12:52;25.10;67.70
53978;DHT22;39886;47.984;-1.586;2023-06-10T02:15:18;25.10;67.70
53978;DHT22;39886;47.984;-1.586;2023-06-10T02:17:44;25.10;67.70
53978;DHT22;39886;47.984;-1.586;2023-06-10T02:20:14;25.00;67.70
53978;DHT22;39886;47.984;-1.586;2023-06-10T02:22:40;25.10;67.70
53978;DHT22;39886;47.984;-1.586;2023-06-10T02:25:06;25.00;67.70
53978;DHT22;39886;47.984;-1.586;2023-06-10T02:27:32;25.10;67.70
53978;DHT22;39886;47.984;-1.586;2023-06-10T02:29:58;25.00;67.60
53978;DHT22;39886;47.984;-1.586;2023-06-10T02:32:23;25.00;67.60
53978;DHT22;39886;47.984;-1.586;2023-06-10T02:34:49;25.00;67.60
53978;DHT22;39886;47.984;-1.586;2023-06-10T02:37:17;25.00;67.70
53978;DHT22;39886;47.984;-1.586;2023-06-10T02:39:43;25.00;67.70
53978;DHT22;39886;47.984;-1.586;2023-06-10T02:42:09;25.00;67.60
53978;DHT22;39886;47.984;-1.586;2023-06-10T02:44:36;25.00;67.70
53978;DHT22;39886;47.984;-1.586;2023-06-10T02:47:01;25.00;67.70
53978;DHT22;39886;47.984;-1.586;2023-06-10T02:49:27;25.00;67.70
53978;DHT22;39886;47.984;-1.586;2023-06-10T02:51:53;25.00;67.70
53978;DHT22;39886;47.984;-1.586;2023-06-10T02:54:23;25.00;67.70
53978;DHT22;39886;47.984;-1.586;2023-06-10T02:56:49;25.00;67.70
53978;DHT22;39886;47.984;-1.586;2023-06-10T02:59:15;25.00;67.70
53978;DHT22;39886;47.984;-1.586;2023-06-10T03:01:41;25.00;67.70
53978;DHT22;39886;47.984;-1.586;2023-06-10T03:04:07;25.00;67.70
53978;DHT22;39886;47.984;-1.586;2023-06-10T03:06:33;25.00;67.70
53978;DHT22;39886;47.984;-1.586;2023-06-10T03:09:02;25.00;67.70
53978;DHT22;39886;47.984;-1.586;2023-06-10T03:11:30;25.00;67.70
53978;DHT22;39886;47.984;-1.586;2023-06-10T03:13:57;25.00;67.70
53978;DHT22;39886;47.984;-1.586;2023-06-10T03:16:23;25.00;67.70
53978;DHT22;39886;47.984;-1.586;2023-06-10T03:18:50;25.00;67.70
53978;DHT22;39886;47.984;-1.586;2023-06-10T03:21:16;25.00;67.70
53978;DHT22;39886;47.984;-1.586;2023-06-10T03:23:42;25.00;67.70
53978;DHT22;39886;47.984;-1.586;2023-06-10T03:26:08;25.00;67.70
53978;DHT22;39886;47.984;-1.586;2023-06-10T03:28:35;25.00;67.70
53978;DHT22;39886;47.984;-1.586;2023-06-10T03:31:01;25.00;67.70
53978;DHT22;39886;47.984;-1.586;2023-06-10T03:33:27;25.00;67.70
53978;DHT22;39886;47.984;-1.586;2023-06-10T03:35:53;25.00;67.70
53978;DHT22;39886;47.984;-1.586;2023-06-10T03:38:18;25.00;67.70
53978;DHT22;39886;47.984;-1.586;2023-06-10T03:40:44;25.00;67.70
53978;DHT22;39886;47.984;-1.586;2023-06-10T03:43:10;25.00;67.70
53978;DHT22;39886;47.984;-1.586;2023-06-10T03:45:36;25.00;67.70
53978;DHT22;39886;47.984;-1.586;2023-06-10T03:48:02;25.00;67.70
53978;DHT22;39886;47.984;-1.586;2023-06-10T03:50:29;25.00;67.70
53978;DHT22;39886;47.984;-1.586;2023-06-10T03:52:55;25.00;67.70
53978;DHT22;39886;47.984;-1.586;2023-06-10T03:55:20;25.00;67.70
53978;DHT22;39886;47.984;-1.586;2023-06-10T03:57:47;25.00;67.70
53978;DHT22;39886;47.984;-1.586;2023-06-10T04:00:14;25.00;67.70
53978;DHT22;39886;47.984;-1.586;2023-06-10T04:02:41;25.00;67.70
53978;DHT22;39886;47.984;-1.586;2023-06-10T04:05:15;25.00;68.30
53978;DHT22;39886;47.984;-1.586;2023-06-10T04:07:42;25.00;67.70
53978;DHT22;39886;47.984;-1.586;2023-06-10T04:10:08;25.00;67.70
53978;DHT22;39886;47.984;-1.586;2023-06-10T04:12:35;25.00;67.70
53978;DHT22;39886;47.984;-1.586;2023-06-10T04:15:02;25.00;67.70
53978;DHT22;39886;47.984;-1.586;2023-06-10T04:17:28;24.90;67.60
53978;DHT22;39886;47.984;-1.586;2023-06-10T04:19:53;24.90;67.60
53978;DHT22;39886;47.984;-1.586;2023-06-10T04:22:20;25.00;67.70
53978;DHT22;39886;47.984;-1.586;2023-06-10T04:24:46;25.00;67.70
53978;DHT22;39886;47.984;-1.586;2023-06-10T04:27:12;25.00;67.70
53978;DHT22;39886;47.984;-1.586;2023-06-10T04:29:37;25.00;67.70
53978;DHT22;39886;47.984;-1.586;2023-06-10T04:32:03;24.90;67.70
53978;DHT22;39886;47.984;-1.586;2023-06-10T04:34:31;24.90;67.70
53978;DHT22;39886;47.984;-1.586;2023-06-10T04:36:56;24.90;67.70
53978;DHT22;39886;47.984;-1.586;2023-06-10T04:39:22;25.00;67.70
53978;DHT22;39886;47.984;-1.586;2023-06-10T04:41:48;24.90;67.70
53978;DHT22;39886;47.984;-1.586;2023-06-10T04:44:14;24.90;67.70
53978;DHT22;39886;47.984;-1.586;2023-06-10T04:46:39;24.90;67.70
53978;DHT22;39886;47.984;-1.586;2023-06-10T04:49:05;24.90;67.70
53978;DHT22;39886;47.984;-1.586;2023-06-10T04:51:31;24.90;67.60
53978;DHT22;39886;47.984;-1.586;2023-06-10T04:53:58;24.90;67.70
53978;DHT22;39886;47.984;-1.586;2023-06-10T04:56:24;24.90;67.70
53978;DHT22;39886;47.984;-1.586;2023-06-10T04:58:50;24.90;67.70
53978;DHT22;39886;47.984;-1.586;2023-06-10T05:01:16;24.90;67.70
53978;DHT22;39886;47.984;-1.586;2023-06-10T05:03:42;24.90;67.70
53978;DHT22;39886;47.984;-1.586;2023-06-10T05:06:07;24.90;67.70
53978;DHT22;39886;47.984;-1.586;2023-06-10T05:08:33;24.90;67.70
53978;DHT22;39886;47.984;-1.586;2023-06-10T05:10:59;24.90;67.60
53978;DHT22;39886;47.984;-1.586;2023-06-10T05:13:25;24.90;67.70
53978;DHT22;39886;47.984;-1.586;2023-06-10T05:15:50;24.90;67.70
53978;DHT22;39886;47.984;-1.586;2023-06-10T05:18:16;24.90;67.70
53978;DHT22;39886;47.984;-1.586;2023-06-10T05:20:42;24.90;67.70
53978;DHT22;39886;47.984;-1.586;2023-06-10T05:23:08;24.90;67.70
53978;DHT22;39886;47.984;-1.586;2023-06-10T05:25:33;24.90;67.70
53978;DHT22;39886;47.984;-1.586;2023-06-10T05:28:00;24.90;67.70
53978;DHT22;39886;47.984;-1.586;2023-06-10T05:30:26;24.90;67.70
53978;DHT22;39886;47.984;-1.586;2023-06-10T05:32:52;24.90;67.70
53978;DHT22;39886;47.984;-1.586;2023-06-10T05:35:18;24.90;67.70
53978;DHT22;39886;47.984;-1.586;2023-06-10T05:37:44;24.90;67.70
53978;DHT22;39886;47.984;-1.586;2023-06-10T05:40:11;24.90;67.70
53978;DHT22;39886;47.984;-1.586;2023-06-10T05:42:36;24.90;67.70
53978;DHT22;39886;47.984;-1.586;2023-06-10T05:45:03;24.90;67.70
53978;DHT22;39886;47.984;-1.586;2023-06-10T05:47:29;24.90;67.70
53978;DHT22;39886;47.984;-1.586;2023-06-10T05:49:55;24.90;67.70
53978;DHT22;39886;47.984;-1.586;2023-06-10T05:52:21;24.90;67.70
53978;DHT22;39886;47.984;-1.586;2023-06-10T05:54:46;24.90;67.70
53978;DHT22;39886;47.984;-1.586;2023-06-10T05:57:12;24.90;67.70
53978;DHT22;39886;47.984;-1.586;2023-06-10T05:59:38;24.90;67.70
53978;DHT22;39886;47.984;-1.586;2023-06-10T06:02:04;24.90;67.70
53978;DHT22;39886;47.984;-1.586;2023-06-10T06:04:30;24.90;67.70
53978;DHT22;39886;47.984;-1.586;2023-06-10T06:06:57;24.90;67.60
53978;DHT22;39886;47.984;-1.586;2023-06-10T06:09:23;24.90;67.60
53978;DHT22;39886;47.984;-1.586;2023-06-10T06:11:48;24.90;67.70
53978;DHT22;39886;47.984;-1.586;2023-06-10T06:14:14;24.90;67.60
53978;DHT22;39886;47.984;-1.586;2023-06-10T06:16:40;24.90;67.60
53978;DHT22;39886;47.984;-1.586;2023-06-10T06:19:06;24.90;67.60
53978;DHT22;39886;47.984;-1.586;2023-06-10T06:21:31;24.90;67.70
53978;DHT22;39886;47.984;-1.586;2023-06-10T06:23:58;24.90;67.70
53978;DHT22;39886;47.984;-1.586;2023-06-10T06:26:24;24.90;67.60
53978;DHT22;39886;47.984;-1.586;2023-06-10T06:28:50;24.90;67.60
53978;DHT22;39886;47.984;-1.586;2023-06-10T06:31:17;24.90;67.60
53978;DHT22;39886;47.984;-1.586;2023-06-10T06:33:43;24.90;67.70
53978;DHT22;39886;47.984;-1.586;2023-06-10T06:36:09;24.90;67.60
53978;DHT22;39886;47.984;-1.586;2023-06-10T06:38:34;24.90;67.60
53978;DHT22;39886;47.984;-1.586;2023-06-10T06:41:00;24.90;67.60
53978;DHT22;39886;47.984;-1.586;2023-06-10T06:43:31;24.90;67.70
53978;DHT22;39886;47.984;-1.586;2023-06-10T06:45:57;24.90;67.60
53978;DHT22;39886;47.984;-1.586;2023-06-10T06:48:23;24.90;67.60
53978;DHT22;39886;47.984;-1.586;2023-06-10T06:50:49;24.90;67.60
53978;DHT22;39886;47.984;-1.586;2023-06-10T06:53:15;24.90;67.60
53978;DHT22;39886;47.984;-1.586;2023-06-10T06:55:40;24.90;67.60
53978;DHT22;39886;47.984;-1.586;2023-06-10T06:58:06;24.90;67.60
53978;DHT22;39886;47.984;-1.586;2023-06-10T07:00:32;25.00;67.70
53978;DHT22;39886;47.984;-1.586;2023-06-10T07:02:58;24.90;67.60
53978;DHT22;39886;47.984;-1.586;2023-06-10T07:05:24;25.00;67.70
53978;DHT22;39886;47.984;-1.586;2023-06-10T07:07:53;24.90;67.60
53978;DHT22;39886;47.984;-1.586;2023-06-10T07:10:24;25.00;67.60
53978;DHT22;39886;47.984;-1.586;2023-06-10T07:12:50;25.00;67.70
53978;DHT22;39886;47.984;-1.586;2023-06-10T07:15:16;25.00;67.70
53978;DHT22;39886;47.984;-1.586;2023-06-10T07:17:42;25.00;67.60
53978;DHT22;39886;47.984;-1.586;2023-06-10T07:20:08;25.00;67.60
53978;DHT22;39886;47.984;-1.586;2023-06-10T07:22:34;25.00;67.60
53978;DHT22;39886;47.984;-1.586;2023-06-10T07:24:59;25.00;67.50
53978;DHT22;39886;47.984;-1.586;2023-06-10T07:27:25;25.00;67.50
53978;DHT22;39886;47.984;-1.586;2023-06-10T07:29:51;25.00;67.50
53978;DHT22;39886;47.984;-1.586;2023-06-10T07:32:17;25.00;67.50
53978;DHT22;39886;47.984;-1.586;2023-06-10T07:34:43;25.00;67.50
53978;DHT22;39886;47.984;-1.586;2023-06-10T07:37:09;25.00;67.40
53978;DHT22;39886;47.984;-1.586;2023-06-10T07:39:35;25.00;67.40
53978;DHT22;39886;47.984;-1.586;2023-06-10T07:42:01;25.00;67.40
53978;DHT22;39886;47.984;-1.586;2023-06-10T07:44:26;25.00;67.40
53978;DHT22;39886;47.984;-1.586;2023-06-10T07:46:52;25.00;67.40
53978;DHT22;39886;47.984;-1.586;2023-06-10T07:49:18;25.10;67.40
53978;DHT22;39886;47.984;-1.586;2023-06-10T07:51:44;25.10;67.40
53978;DHT22;39886;47.984;-1.586;2023-06-10T07:54:10;25.10;67.40
53978;DHT22;39886;47.984;-1.586;2023-06-10T07:56:39;25.10;67.40
53978;DHT22;39886;47.984;-1.586;2023-06-10T07:59:05;25.10;67.40
53978;DHT22;39886;47.984;-1.586;2023-06-10T08:01:31;25.10;67.40
53978;DHT22;39886;47.984;-1.586;2023-06-10T08:03:58;25.10;67.40
53978;DHT22;39886;47.984;-1.586;2023-06-10T08:06:24;25.10;67.30
53978;DHT22;39886;47.984;-1.586;2023-06-10T08:08:49;25.10;67.30
53978;DHT22;39886;47.984;-1.586;2023-06-10T08:11:15;25.10;67.30
53978;DHT22;39886;47.984;-1.586;2023-06-10T08:13:41;25.10;67.30
53978;DHT22;39886;47.984;-1.586;2023-06-10T08:16:07;25.10;67.20
53978;DHT22;39886;47.984;-1.586;2023-06-10T08:18:33;25.10;67.30
53978;DHT22;39886;47.984;-1.586;2023-06-10T08:20:59;25.20;67.30
53978;DHT22;39886;47.984;-1.586;2023-06-10T08:23:25;25.20;67.20
53978;DHT22;39886;47.984;-1.586;2023-06-10T08:25:51;25.20;67.20
53978;DHT22;39886;47.984;-1.586;2023-06-10T08:28:18;25.20;67.10
53978;DHT22;39886;47.984;-1.586;2023-06-10T08:30:44;25.30;67.00
53978;DHT22;39886;47.984;-1.586;2023-06-10T08:33:09;25.30;67.00
53978;DHT22;39886;47.984;-1.586;2023-06-10T08:35:35;25.30;66.90
53978;DHT22;39886;47.984;-1.586;2023-06-10T08:38:01;25.30;66.90
53978;DHT22;39886;47.984;-1.586;2023-06-10T08:40:27;25.30;66.80
53978;DHT22;39886;47.984;-1.586;2023-06-10T08:42:57;25.30;66.70
53978;DHT22;39886;47.984;-1.586;2023-06-10T08:45:29;25.40;66.70
53978;DHT22;39886;47.984;-1.586;2023-06-10T08:47:57;25.40;66.70
53978;DHT22;39886;47.984;-1.586;2023-06-10T08:50:23;25.40;66.70
53978;DHT22;39886;47.984;-1.586;2023-06-10T08:52:54;25.40;66.70
53978;DHT22;39886;47.984;-1.586;2023-06-10T08:55:44;25.40;66.70
53978;DHT22;39886;47.984;-1.586;2023-06-10T08:58:13;25.40;66.60
53978;DHT22;39886;47.984;-1.586;2023-06-10T09:00:39;25.50;66.60
53978;DHT22;39886;47.984;-1.586;2023-06-10T09:03:05;25.50;66.70
53978;DHT22;39886;47.984;-1.586;2023-06-10T09:05:34;25.50;66.70
53978;DHT22;39886;47.984;-1.586;2023-06-10T09:08:02;25.50;66.70
53978;DHT22;39886;47.984;-1.586;2023-06-10T09:10:28;25.50;66.60
53978;DHT22;39886;47.984;-1.586;2023-06-10T09:12:54;25.50;66.70
53978;DHT22;39886;47.984;-1.586;2023-06-10T09:15:20;25.50;66.60
53978;DHT22;39886;47.984;-1.586;2023-06-10T09:17:46;25.50;66.70
53978;DHT22;39886;47.984;-1.586;2023-06-10T09:20:12;25.50;66.70
53978;DHT22;39886;47.984;-1.586;2023-06-10T09:22:38;25.50;66.70
53978;DHT22;39886;47.984;-1.586;2023-06-10T09:25:10;25.50;66.70
53978;DHT22;39886;47.984;-1.586;2023-06-10T09:27:46;25.50;66.70
53978;DHT22;39886;47.984;-1.586;2023-06-10T09:30:32;25.50;66.60
53978;DHT22;39886;47.984;-1.586;2023-06-10T09:33:00;25.50;66.60
53978;DHT22;39886;47.984;-1.586;2023-06-10T09:35:27;25.60;66.70
53978;DHT22;39886;47.984;-1.586;2023-06-10T09:37:54;25.50;66.70
53978;DHT22;39886;47.984;-1.586;2023-06-10T09:40:20;25.50;66.70
53978;DHT22;39886;47.984;-1.586;2023-06-10T09:42:55;25.60;66.80
53978;DHT22;39886;47.984;-1.586;2023-06-10T09:45:22;25.50;66.70
53978;DHT22;39886;47.984;-1.586;2023-06-10T09:47:52;25.50;66.70
53978;DHT22;39886;47.984;-1.586;2023-06-10T09:50:18;25.50;66.70
53978;DHT22;39886;47.984;-1.586;2023-06-10T09:52:46;25.50;66.70
53978;DHT22;39886;47.984;-1.586;2023-06-10T09:55:11;25.50;66.70
53978;DHT22;39886;47.984;-1.586;2023-06-10T09:57:37;25.60;66.80
53978;DHT22;39886;47.984;-1.586;2023-06-10T10:00:11;25.50;66.70
53978;DHT22;39886;47.984;-1.586;2023-06-10T10:02:48;25.50;66.70
53978;DHT22;39886;47.984;-1.586;2023-06-10T10:05:18;25.50;66.80
53978;DHT22;39886;47.984;-1.586;2023-06-10T10:07:45;25.50;66.80
53978;DHT22;39886;47.984;-1.586;2023-06-10T10:10:11;25.50;66.80
53978;DHT22;39886;47.984;-1.586;2023-06-10T10:12:39;25.50;66.80
53978;DHT22;39886;47.984;-1.586;2023-06-10T10:15:09;25.50;66.90
53978;DHT22;39886;47.984;-1.586;2023-06-10T10:18:03;25.50;66.90
53978;DHT22;39886;47.984;-1.586;2023-06-10T10:20:33;25.50;66.80
53978;DHT22;39886;47.984;-1.586;2023-06-10T10:23:02;25.60;66.90
53978;DHT22;39886;47.984;-1.586;2023-06-10T10:25:32;25.50;66.90
53978;DHT22;39886;47.984;-1.586;2023-06-10T10:28:11;25.60;66.90
53978;DHT22;39886;47.984;-1.586;2023-06-10T10:30:42;25.50;66.80
53978;DHT22;39886;47.984;-1.586;2023-06-10T10:33:13;25.60;66.90
53978;DHT22;39886;47.984;-1.586;2023-06-10T10:35:41;25.60;66.80
53978;DHT22;39886;47.984;-1.586;2023-06-10T10:38:09;25.60;66.80
53978;DHT22;39886;47.984;-1.586;2023-06-10T10:40:35;25.60;66.80
53978;DHT22;39886;47.984;-1.586;2023-06-10T10:43:02;25.60;66.80
53978;DHT22;39886;47.984;-1.586;2023-06-10T10:45:29;25.60;66.80
53978;DHT22;39886;47.984;-1.586;2023-06-10T10:47:55;25.60;66.70
53978;DHT22;39886;47.984;-1.586;2023-06-10T10:50:22;25.60;66.70
53978;DHT22;39886;47.984;-1.586;2023-06-10T10:53:02;25.70;66.80
53978;DHT22;39886;47.984;-1.586;2023-06-10T10:55:29;25.70;66.80
53978;DHT22;39886;47.984;-1.586;2023-06-10T10:58:07;25.70;66.70
53978;DHT22;39886;47.984;-1.586;2023-06-10T11:00:39;25.60;66.60
53978;DHT22;39886;47.984;-1.586;2023-06-10T11:03:13;25.70;66.70
53978;DHT22;39886;47.984;-1.586;2023-06-10T11:05:43;25.70;66.70
53978;DHT22;39886;47.984;-1.586;2023-06-10T11:08:13;25.70;66.70
53978;DHT22;39886;47.984;-1.586;2023-06-10T11:10:40;25.70;66.70
53978;DHT22;39886;47.984;-1.586;2023-06-10T11:13:08;25.70;66.80
53978;DHT22;39886;47.984;-1.586;2023-06-10T11:15:39;25.60;66.60
53978;DHT22;39886;47.984;-1.586;2023-06-10T11:18:27;25.70;66.80
53978;DHT22;39886;47.984;-1.586;2023-06-10T11:20:58;25.70;66.70
53978;DHT22;39886;47.984;-1.586;2023-06-10T11:26:29;25.70;66.80
53978;DHT22;39886;47.984;-1.586;2023-06-10T11:31:31;25.70;66.70
53978;DHT22;39886;47.984;-1.586;2023-06-10T11:34:02;25.70;66.80
53978;DHT22;39886;47.984;-1.586;2023-06-10T11:36:33;25.70;66.70
53978;DHT22;39886;47.984;-1.586;2023-06-10T11:39:01;25.70;66.60
53978;DHT22;39886;47.984;-1.586;2023-06-10T11:41:28;25.70;66.60
53978;DHT22;39886;47.984;-1.586;2023-06-10T11:43:55;25.80;66.60
53978;DHT22;39886;47.984;-1.586;2023-06-10T11:46:24;25.80;66.50
53978;DHT22;39886;47.984;-1.586;2023-06-10T11:48:54;25.80;66.50
53978;DHT22;39886;47.984;-1.586;2023-06-10T11:51:20;25.90;66.50
53978;DHT22;39886;47.984;-1.586;2023-06-10T11:53:49;25.80;66.40
53978;DHT22;39886;47.984;-1.586;2023-06-10T11:56:25;25.90;66.50
53978;DHT22;39886;47.984;-1.586;2023-06-10T11:58:58;25.90;66.40
53978;DHT22;39886;47.984;-1.586;2023-06-10T12:01:26;25.90;66.50
53978;DHT22;39886;47.984;-1.586;2023-06-10T12:04:08;25.90;66.40
53978;DHT22;39886;47.984;-1.586;2023-06-10T12:06:47;25.90;66.30
53978;DHT22;39886;47.984;-1.586;2023-06-10T12:09:29;25.90;66.30
53978;DHT22;39886;47.984;-1.586;2023-06-10T12:11:59;26.00;66.20
53978;DHT22;39886;47.984;-1.586;2023-06-10T12:17:15;26.00;66.20
53978;DHT22;39886;47.984;-1.586;2023-06-10T12:19:41;26.00;66.10
53978;DHT22;39886;47.984;-1.586;2023-06-10T12:22:07;26.10;66.10
53978;DHT22;39886;47.984;-1.586;2023-06-10T12:24:32;26.00;66.00
53978;DHT22;39886;47.984;-1.586;2023-06-10T12:26:58;26.10;66.00
53978;DHT22;39886;47.984;-1.586;2023-06-10T12:29:25;26.10;66.00
53978;DHT22;39886;47.984;-1.586;2023-06-10T12:34:38;26.10;65.90
53978;DHT22;39886;47.984;-1.586;2023-06-10T12:37:07;26.10;65.80
53978;DHT22;39886;47.984;-1.586;2023-06-10T12:39:39;26.20;65.80
53978;DHT22;39886;47.984;-1.586;2023-06-10T12:42:05;26.20;65.80
53978;DHT22;39886;47.984;-1.586;2023-06-10T12:44:38;26.20;65.80
53978;DHT22;39886;47.984;-1.586;2023-06-10T12:47:11;26.20;65.70
53978;DHT22;39886;47.984;-1.586;2023-06-10T12:49:39;26.20;65.70
53978;DHT22;39886;47.984;-1.586;2023-06-10T12:52:06;26.20;65.70
53978;DHT22;39886;47.984;-1.586;2023-06-10T12:54:32;26.20;65.60
53978;DHT22;39886;47.984;-1.586;2023-06-10T12:56:58;26.20;65.60
53978;DHT22;39886;47.984;-1.586;2023-06-10T12:59:24;26.30;65.70
53978;DHT22;39886;47.984;-1.586;2023-06-10T13:01:51;26.20;65.60
53978;DHT22;39886;47.984;-1.586;2023-06-10T13:04:17;26.20;65.60
53978;DHT22;39886;47.984;-1.586;2023-06-10T13:06:44;26.30;65.70
53978;DHT22;39886;47.984;-1.586;2023-06-10T13:09:09;26.30;65.70
53978;DHT22;39886;47.984;-1.586;2023-06-10T13:11:36;26.30;65.70
53978;DHT22;39886;47.984;-1.586;2023-06-10T13:14:02;26.30;65.70
53978;DHT22;39886;47.984;-1.586;2023-06-10T13:16:30;26.30;65.60
53978;DHT22;39886;47.984;-1.586;2023-06-10T13:18:56;26.30;65.60
53978;DHT22;39886;47.984;-1.586;2023-06-10T13:21:22;26.30;65.60
53978;DHT22;39886;47.984;-1.586;2023-06-10T13:23:47;26.30;65.60
53978;DHT22;39886;47.984;-1.586;2023-06-10T13:26:14;26.30;65.60
53978;DHT22;39886;47.984;-1.586;2023-06-10T13:28:42;26.30;65.60
53978;DHT22;39886;47.984;-1.586;2023-06-10T13:31:08;26.30;65.60
53978;DHT22;39886;47.984;-1.586;2023-06-10T13:33:33;26.30;65.60
53978;DHT22;39886;47.984;-1.586;2023-06-10T13:35:59;26.30;65.60
53978;DHT22;39886;47.984;-1.586;2023-06-10T13:38:25;26.30;65.60
53978;DHT22;39886;47.984;-1.586;2023-06-10T13:40:51;26.30;65.60
53978;DHT22;39886;47.984;-1.586;2023-06-10T13:43:16;26.30;65.70
53978;DHT22;39886;47.984;-1.586;2023-06-10T13:45:42;26.30;65.70
53978;DHT22;39886;47.984;-1.586;2023-06-10T13:48:08;26.30;65.70
53978;DHT22;39886;47.984;-1.586;2023-06-10T13:50:34;26.30;65.70
53978;DHT22;39886;47.984;-1.586;2023-06-10T13:53:00;26.30;65.80
53978;DHT22;39886;47.984;-1.586;2023-06-10T13:55:25;26.30;65.80
53978;DHT22;39886;47.984;-1.586;2023-06-10T13:57:51;26.30;65.80
53978;DHT22;39886;47.984;-1.586;2023-06-10T14:00:17;26.30;65.80
53978;DHT22;39886;47.984;-1.586;2023-06-10T14:02:43;26.30;65.90
53978;DHT22;39886;47.984;-1.586;2023-06-10T14:05:10;26.30;65.90
53978;DHT22;39886;47.984;-1.586;2023-06-10T14:07:35;26.30;65.90
53978;DHT22;39886;47.984;-1.586;2023-06-10T14:10:02;26.30;65.90
53978;DHT22;39886;47.984;-1.586;2023-06-10T14:12:28;26.30;65.90
53978;DHT22;39886;47.984;-1.586;2023-06-10T14:14:54;26.30;66.00
53978;DHT22;39886;47.984;-1.586;2023-06-10T14:17:20;26.30;65.90
53978;DHT22;39886;47.984;-1.586;2023-06-10T14:19:45;26.30;65.90
53978;DHT22;39886;47.984;-1.586;2023-06-10T14:22:11;26.30;65.90
53978;DHT22;39886;47.984;-1.586;2023-06-10T14:24:37;26.30;65.90
53978;DHT22;39886;47.984;-1.586;2023-06-10T14:27:03;26.30;66.00
53978;DHT22;39886;47.984;-1.586;2023-06-10T14:29:29;26.30;66.00
53978;DHT22;39886;47.984;-1.586;2023-06-10T14:31:57;26.30;66.00
53978;DHT22;39886;47.984;-1.586;2023-06-10T14:34:22;26.30;66.00
53978;DHT22;39886;47.984;-1.586;2023-06-10T14:36:54;26.30;66.00
53978;DHT22;39886;47.984;-1.586;2023-06-10T14:39:20;26.30;66.00
53978;DHT22;39886;47.984;-1.586;2023-06-10T14:41:45;26.30;66.00
53978;DHT22;39886;47.984;-1.586;2023-06-10T14:44:11;26.30;66.00
53978;DHT22;39886;47.984;-1.586;2023-06-10T14:46:37;26.30;65.90
53978;DHT22;39886;47.984;-1.586;2023-06-10T14:49:02;26.40;65.90
53978;DHT22;39886;47.984;-1.586;2023-06-10T14:51:28;26.40;65.90
53978;DHT22;39886;47.984;-1.586;2023-06-10T14:53:54;26.40;65.80
53978;DHT22;39886;47.984;-1.586;2023-06-10T14:56:20;26.40;65.90
53978;DHT22;39886;47.984;-1.586;2023-06-10T14:58:45;26.40;65.90
53978;DHT22;39886;47.984;-1.586;2023-06-10T15:01:11;26.40;66.00
53978;DHT22;39886;47.984;-1.586;2023-06-10T15:03:37;26.40;66.00
53978;DHT22;39886;47.984;-1.586;2023-06-10T15:06:02;26.30;65.90
53978;DHT22;39886;47.984;-1.586;2023-06-10T15:08:28;26.40;66.00
53978;DHT22;39886;47.984;-1.586;2023-06-10T15:10:54;26.30;66.00
53978;DHT22;39886;47.984;-1.586;2023-06-10T15:13:20;26.30;66.00
53978;DHT22;39886;47.984;-1.586;2023-06-10T15:15:45;26.30;66.00
53978;DHT22;39886;47.984;-1.586;2023-06-10T15:18:11;26.40;66.20
53978;DHT22;39886;47.984;-1.586;2023-06-10T15:20:37;26.30;66.10
53978;DHT22;39886;47.984;-1.586;2023-06-10T15:23:02;26.30;66.10
53978;DHT22;39886;47.984;-1.586;2023-06-10T15:25:28;26.40;66.10
53978;DHT22;39886;47.984;-1.586;2023-06-10T15:27:54;26.40;66.10
53978;DHT22;39886;47.984;-1.586;2023-06-10T15:30:20;26.40;66.20
53978;DHT22;39886;47.984;-1.586;2023-06-10T15:32:45;26.40;66.20